Time;durP1;ratioP1;P1;durP2;ratioP2;P2;SDS_P1;SDS_P2;PMS_P1;PMS_P2;Temp;Humidity;BMP_temperature;BMP_pressure;BME280_temperature;BME280_humidity;BME280_pressure;Samples;Min_cycle;Max_cycle;Signal;HPM_P1;HPM_P2
2023/09/18 00:01:51;;;;;;;5.00;4.10;;;;;;;18.76;77.77;100699.02;109237;276;38179;-75
2023/09/18 00:04:28;;;;;;;5.00;4.10;;;;;;;18.77;77.68;100697.77;109207;276;39543;-76
2023/09/18 00:07:03;;;;;;;4.90;4.30;;;;;;;18.78;77.71;100698.58;109259;276;39318;-75
2023/09/18 00:09:39;;;;;;;5.30;4.30;;;;;;;18.78;77.77;100695.70;109177;276;38160;-75
2023/09/18 00:12:27;;;;;;;5.90;4.50;;;;;;;18.79;77.59;100692.49;109056;276;40681;-75
2023/09/18 00:15:28;;;;;;;5.10;4.60;;;;;;;18.78;77.76;100693.83;109208;276;38775;-74
2023/09/18 00:18:25;;;;;;;5.00;4.60;;;;;;;18.75;77.64;100695.98;109142;276;38879;-74
2023/09/18 00:21:03;;;;;;;4.60;4.00;;;;;;;18.71;77.67;100700.09;109147;276;38266;-75
2023/09/18 00:23:37;;;;;;;4.70;4.30;;;;;;;18.70;77.79;100701.23;109082;276;38177;-75
2023/09/18 00:26:12;;;;;;;4.90;4.50;;;;;;;18.69;77.74;100698.97;109006;276;175119;-77
2023/09/18 00:28:46;;;;;;;4.80;4.40;;;;;;;18.68;77.82;100698.69;109083;276;38178;-75
2023/09/18 00:31:22;;;;;;;5.10;4.30;;;;;;;18.67;77.85;100697.70;109058;276;38661;-75
2023/09/18 00:33:58;;;;;;;4.90;4.50;;;;;;;18.64;77.77;100698.58;109088;276;38234;-75
2023/09/18 00:36:33;;;;;;;5.40;4.30;;;;;;;18.60;77.86;100695.87;108943;276;40179;-74
2023/09/18 00:39:08;;;;;;;5.60;5.10;;;;;;;18.57;77.94;100697.11;109158;276;38233;-74
2023/09/18 00:41:49;;;;;;;5.10;4.60;;;;;;;18.51;77.88;100698.71;108961;276;38174;-75
2023/09/18 00:44:26;;;;;;;5.70;4.80;;;;;;;18.44;78.12;100696.20;109167;276;38511;-75
2023/09/18 00:47:04;;;;;;;5.80;4.30;;;;;;;18.39;78.21;100694.23;108982;276;39733;-76
2023/09/18 00:49:38;;;;;;;5.10;4.70;;;;;;;18.33;78.22;100693.09;108987;276;39823;-74
2023/09/18 00:52:12;;;;;;;5.90;4.70;;;;;;;18.26;78.33;100693.67;109097;276;38531;-75
2023/09/18 00:54:46;;;;;;;5.20;4.60;;;;;;;18.23;78.78;100695.27;109142;276;38184;-74
2023/09/18 00:57:22;;;;;;;6.00;5.00;;;;;;;18.18;78.70;100693.80;109112;276;38507;-75
2023/09/18 00:59:56;;;;;;;5.70;5.10;;;;;;;18.12;79.05;100695.80;109096;276;38796;-74
2023/09/18 01:02:50;;;;;;;5.20;4.70;;;;;;;18.08;79.23;100695.89;109186;276;39508;-76
2023/09/18 01:05:45;;;;;;;5.10;4.70;;;;;;;17.99;79.30;100694.30;109166;276;38839;-77
2023/09/18 01:08:22;;;;;;;4.60;4.20;;;;;;;17.93;79.31;100695.64;109110;276;38461;-76
2023/09/18 01:11:07;;;;;;;4.60;4.20;;;;;;;17.85;79.39;100692.73;109030;276;38572;-75
2023/09/18 01:13:49;;;;;;;5.40;4.10;;;;;;;17.80;79.64;100690.95;108262;276;895007;-76
2023/09/18 01:16:28;;;;;;;5.00;4.40;;;;;;;17.74;79.54;100687.98;108918;276;38152;-75
2023/09/18 01:19:04;;;;;;;7.50;4.20;;;;;;;17.68;80.02;100686.95;108928;276;38290;-74
2023/09/18 01:24:58;;;;;;;4.90;4.40;;;;;;;17.56;80.47;100690.86;108953;276;38475;-74
2023/09/18 01:27:34;;;;;;;4.90;4.40;;;;;;;17.51;80.47;100695.19;108955;276;38186;-74
2023/09/18 01:30:10;;;;;;;5.60;5.00;;;;;;;17.48;80.59;100693.27;108993;276;38648;-74
2023/09/18 01:33:06;;;;;;;6.10;5.10;;;;;;;17.47;80.94;100692.99;108956;276;38172;-74
2023/09/18 01:35:57;;;;;;;6.10;5.50;;;;;;;17.44;81.02;100697.75;109060;276;38462;-74
2023/09/18 01:38:42;;;;;;;7.10;5.80;;;;;;;17.39;81.27;100700.35;109034;276;38231;-76
2023/09/18 01:41:19;;;;;;;6.10;5.50;;;;;;;17.35;81.64;100703.64;109062;276;38668;-75
2023/09/18 01:43:56;;;;;;;6.10;5.60;;;;;;;17.34;81.93;100703.67;108965;276;38479;-76
2023/09/18 01:46:35;;;;;;;6.70;6.10;;;;;;;17.34;82.19;100699.10;109036;276;38758;-76
2023/09/18 01:49:09;;;;;;;6.10;5.60;;;;;;;17.35;82.60;100694.59;108979;276;38797;-74
2023/09/18 01:51:55;;;;;;;6.60;5.80;;;;;;;17.38;82.92;100694.74;108956;276;38741;-76
2023/09/18 01:54:38;;;;;;;7.00;6.10;;;;;;;17.41;82.79;100690.54;108977;276;38310;-74
2023/09/18 01:57:35;;;;;;;7.00;6.40;;;;;;;17.43;83.11;100686.01;109009;276;38720;-74
2023/09/18 02:00:37;;;;;;;7.00;6.40;;;;;;;17.45;83.30;100685.73;108951;276;38269;-74
2023/09/18 02:03:32;;;;;;;6.70;6.10;;;;;;;17.45;83.56;100684.45;108985;276;39110;-74
2023/09/18 02:06:08;;;;;;;7.60;5.80;;;;;;;17.44;83.35;100678.86;109042;276;39444;-74
2023/09/18 02:08:42;;;;;;;6.30;5.70;;;;;;;17.46;83.40;100677.35;108960;276;38260;-74
2023/09/18 02:11:16;;;;;;;6.70;6.00;;;;;;;17.47;83.44;100677.29;108971;276;39386;-76
2023/09/18 02:13:52;;;;;;;6.30;5.70;;;;;;;17.47;83.20;100673.75;109002;276;39448;-74
2023/09/18 02:16:26;;;;;;;6.50;5.30;;;;;;;17.47;83.19;100677.45;108975;276;39390;-74
2023/09/18 02:19:00;;;;;;;5.90;5.00;;;;;;;17.46;83.29;100678.73;108314;276;893633;-74
2023/09/18 02:21:34;;;;;;;5.60;5.10;;;;;;;17.46;83.25;100671.52;109002;276;38169;-76
2023/09/18 02:24:11;;;;;;;6.20;5.60;;;;;;;17.45;83.26;100665.45;108983;276;38452;-74
2023/09/18 02:26:48;;;;;;;6.40;4.80;;;;;;;17.44;83.32;100671.48;108989;276;38307;-76
2023/09/18 02:29:22;;;;;;;5.80;5.30;;;;;;;17.43;83.41;100667.16;108932;276;38909;-75
2023/09/18 02:31:57;;;;;;;7.20;5.30;;;;;;;17.45;83.50;100663.83;109037;276;38372;-73
2023/09/18 02:34:33;;;;;;;6.50;5.50;;;;;;;17.45;83.57;100659.93;108953;276;38467;-76
2023/09/18 02:37:08;;;;;;;8.10;5.60;;;;;;;17.47;83.82;100655.06;108975;276;38132;-75
2023/09/18 02:39:45;;;;;;;6.80;5.30;;;;;;;17.49;83.71;100653.15;108940;276;38878;-76
2023/09/18 02:42:19;;;;;;;7.00;6.30;;;;;;;17.53;83.79;100654.86;109005;276;38976;-74
2023/09/18 02:44:56;;;;;;;6.80;5.90;;;;;;;17.56;83.76;100648.86;108933;276;38331;-76
2023/09/18 02:47:32;;;;;;;6.20;5.60;;;;;;;17.59;83.84;100649.55;108974;276;38390;-74
2023/09/18 02:50:11;;;;;;;6.00;5.40;;;;;;;17.63;84.09;100648.77;108918;276;39343;-76
2023/09/18 02:52:48;;;;;;;6.30;5.70;;;;;;;17.67;83.97;100650.29;108989;276;39604;-74
2023/09/18 02:55:26;;;;;;;7.30;5.70;;;;;;;17.67;83.64;100644.13;108976;276;39782;-76
2023/09/18 02:58:00;;;;;;;5.80;5.30;;;;;;;17.65;83.64;100644.23;108960;276;38726;-75
2023/09/18 03:00:42;;;;;;;6.30;5.50;;;;;;;17.66;83.89;100644.73;108960;276;40079;-74
2023/09/18 03:03:18;;;;;;;5.70;5.10;;;;;;;17.67;83.87;100640.42;108969;276;38272;-74
2023/09/18 03:05:55;;;;;;;6.00;5.10;;;;;;;17.69;84.01;100646.13;109023;276;38253;-75
2023/09/18 03:08:29;;;;;;;5.60;5.10;;;;;;;17.71;84.00;100641.73;108984;276;38481;-75
2023/09/18 03:11:13;;;;;;;5.70;5.20;;;;;;;17.74;84.13;100644.23;109011;276;38814;-76
2023/09/18 03:13:49;;;;;;;7.20;5.50;;;;;;;17.77;84.17;100642.27;108954;276;38483;-75
2023/09/18 03:16:23;;;;;;;6.20;5.40;;;;;;;17.80;84.09;100644.55;108827;276;171849;-73
2023/09/18 03:18:58;;;;;;;6.30;5.70;;;;;;;17.85;84.02;100645.67;108909;276;39418;-74
2023/09/18 03:21:35;;;;;;;6.10;5.60;;;;;;;17.90;83.96;100648.02;108913;276;38406;-75
2023/09/18 03:24:16;;;;;;;6.20;5.60;;;;;;;17.93;83.92;100646.90;108976;276;38166;-74
2023/09/18 03:27:03;;;;;;;5.80;5.10;;;;;;;17.95;83.81;100648.70;108864;276;174953;-75
2023/09/18 03:29:37;;;;;;;7.00;5.80;;;;;;;18.00;83.70;100642.75;108950;276;39196;-76
2023/09/18 03:32:12;;;;;;;6.00;5.50;;;;;;;18.01;83.71;100641.38;108931;276;38441;-75
2023/09/18 03:34:48;;;;;;;6.50;5.90;;;;;;;18.04;83.73;100642.69;108950;276;38810;-75
2023/09/18 03:37:24;;;;;;;6.50;5.90;;;;;;;18.06;83.52;100637.96;108924;276;38719;-77
2023/09/18 03:39:59;;;;;;;6.60;5.90;;;;;;;18.09;83.62;100641.29;109017;276;38708;-74
2023/09/18 03:42:42;;;;;;;6.20;5.60;;;;;;;18.10;83.33;100643.90;108993;276;38726;-74
2023/09/18 03:45:47;;;;;;;7.90;5.50;;;;;;;18.10;83.42;100648.42;108994;276;38377;-75
2023/09/18 03:48:21;;;;;;;7.20;5.70;;;;;;;18.12;83.50;100647.25;109020;276;38718;-74
2023/09/18 03:50:57;;;;;;;6.70;6.10;;;;;;;18.10;83.40;100645.80;109028;276;39002;-75
2023/09/18 03:53:34;;;;;;;7.10;5.70;;;;;;;18.10;83.36;100646.35;108954;276;38641;-76
2023/09/18 03:56:08;;;;;;;9.90;6.40;;;;;;;18.10;83.40;100644.95;108982;276;38155;-70
2023/09/18 03:58:44;;;;;;;6.90;6.30;;;;;;;18.12;83.52;100647.11;108981;276;39539;-70
2023/09/18 04:01:18;;;;;;;7.90;6.70;;;;;;;18.14;83.40;100647.84;108973;276;39491;-76
2023/09/18 04:03:55;;;;;;;7.00;6.40;;;;;;;18.18;83.42;100643.34;108943;276;38343;-74
2023/09/18 04:06:38;;;;;;;7.40;6.60;;;;;;;18.20;83.28;100640.94;108898;276;38829;-75
2023/09/18 04:09:15;;;;;;;8.00;6.50;;;;;;;18.21;83.28;100638.02;108905;276;39037;-74
2023/09/18 04:11:52;;;;;;;7.20;6.50;;;;;;;18.24;83.38;100638.91;108939;276;39303;-75
2023/09/18 04:14:28;;;;;;;7.60;6.90;;;;;;;18.25;83.16;100637.00;108931;276;38503;-75
2023/09/18 04:17:07;;;;;;;7.90;7.00;;;;;;;18.28;83.13;100638.28;108943;276;38968;-76
2023/09/18 04:19:45;;;;;;;7.20;6.60;;;;;;;18.31;82.92;100634.90;108924;276;38619;-76
2023/09/18 04:22:23;;;;;;;7.80;6.90;;;;;;;18.34;83.05;100631.38;108942;276;38372;-76
2023/09/18 04:25:04;;;;;;;8.00;7.20;;;;;;;18.34;82.89;100629.21;108955;276;38380;-77
2023/09/18 04:27:40;;;;;;;8.40;7.60;;;;;;;18.36;82.98;100630.65;109007;276;39727;-75
2023/09/18 04:30:19;;;;;;;9.10;7.30;;;;;;;18.39;82.92;100622.55;109007;276;39767;-74
2023/09/18 04:32:58;;;;;;;9.10;7.20;;;;;;;18.42;83.01;100619.30;109016;276;38177;-74
2023/09/18 04:35:36;;;;;;;8.50;7.60;;;;;;;18.46;82.79;100613.23;109013;276;38195;-77
2023/09/18 04:38:15;;;;;;;8.30;7.60;;;;;;;18.49;82.64;100614.22;108987;276;39432;-75
2023/09/18 04:41:09;;;;;;;8.90;7.30;;;;;;;18.52;82.67;100616.87;108987;276;41100;-77
2023/09/18 04:43:48;;;;;;;8.70;7.80;;;;;;;18.54;82.49;100615.67;108935;276;39108;-77
2023/09/18 04:46:29;;;;;;;8.60;7.70;;;;;;;18.58;82.40;100615.09;109044;276;39388;-75
2023/09/18 04:49:15;;;;;;;8.40;7.50;;;;;;;18.60;82.29;100616.38;108979;276;38232;-76
2023/09/18 04:51:54;;;;;;;8.50;7.60;;;;;;;18.61;82.16;100615.20;108989;276;39417;-76
2023/09/18 04:54:36;;;;;;;9.00;8.10;;;;;;;18.62;82.13;100615.32;108914;276;38281;-76
2023/09/18 04:57:10;;;;;;;9.80;7.70;;;;;;;18.65;82.09;100612.63;108932;276;38160;-74
2023/09/18 04:59:49;;;;;;;10.30;7.90;;;;;;;18.69;82.03;100615.43;108930;276;38727;-76
2023/09/18 05:02:31;;;;;;;9.30;8.20;;;;;;;18.70;82.10;100615.31;108974;276;38569;-75
2023/09/18 05:05:10;;;;;;;9.50;8.40;;;;;;;18.71;81.84;100611.89;108967;276;38754;-75
2023/09/18 05:07:50;;;;;;;9.00;8.10;;;;;;;18.72;81.84;100607.42;109021;276;38249;-74
2023/09/18 05:10:26;;;;;;;8.90;8.00;;;;;;;18.75;81.68;100605.08;108974;276;39315;-75
2023/09/18 05:13:01;;;;;;;10.60;8.30;;;;;;;18.77;81.69;100599.98;108989;276;38265;-73
2023/09/18 05:15:40;;;;;;;8.90;8.00;;;;;;;18.81;81.69;100599.02;108967;276;38441;-73
2023/09/18 05:18:22;;;;;;;9.50;8.40;;;;;;;18.84;81.64;100594.45;109010;276;39581;-74
2023/09/18 05:21:04;;;;;;;9.10;8.20;;;;;;;18.87;81.65;100596.87;109011;276;39619;-74
2023/09/18 05:23:39;;;;;;;12.00;8.90;;;;;;;18.91;81.62;100593.92;108955;276;38287;-75
2023/09/18 05:26:14;;;;;;;11.00;8.10;;;;;;;18.95;81.58;100596.63;108994;276;38175;-73
2023/09/18 05:28:55;;;;;;;9.40;8.60;;;;;;;19.01;81.44;100593.08;108994;276;38684;-73
2023/09/18 05:31:30;;;;;;;9.40;8.30;;;;;;;19.07;81.44;100588.01;108954;276;39249;-73
2023/09/18 05:34:06;;;;;;;9.50;8.50;;;;;;;19.14;81.29;100585.39;109007;276;39326;-72
2023/09/18 05:36:46;;;;;;;10.20;8.60;;;;;;;19.21;81.21;100581.91;109029;276;39440;-73
2023/09/18 05:39:28;;;;;;;10.10;9.00;;;;;;;19.29;81.25;100582.08;109049;276;39220;-73
2023/09/18 05:42:08;;;;;;;10.80;8.80;;;;;;;19.34;80.87;100578.34;109030;276;38147;-73
2023/09/18 05:44:43;;;;;;;9.10;8.30;;;;;;;19.44;80.86;100579.58;109002;276;38725;-72
2023/09/18 05:47:23;;;;;;;11.30;9.10;;;;;;;19.60;81.06;100575.97;109127;276;38196;-72
2023/09/18 05:50:01;;;;;;;10.10;9.20;;;;;;;19.92;81.77;100574.50;108938;276;177971;-75
2023/09/18 05:52:39;;;;;;;10.10;9.10;;;;;;;20.62;83.07;100571.36;109086;276;39624;-76
2023/09/18 05:55:16;;;;;;;9.80;8.70;;;;;;;20.99;81.19;100567.13;109005;276;38209;-76
2023/09/18 05:58:04;;;;;;;10.20;8.70;;;;;;;21.72;81.12;100564.14;109112;276;38202;-72
2023/09/18 06:00:54;;;;;;;11.60;9.20;;;;;;;22.57;78.86;100560.77;109091;276;38766;-72
2023/09/18 06:03:30;;;;;;;9.30;8.40;;;;;;;23.00;75.15;100561.34;109019;276;38411;-77
2023/09/18 06:06:19;;;;;;;9.40;8.50;;;;;;;23.06;73.39;100557.31;109041;276;38564;-73
2023/09/18 06:08:54;;;;;;;10.20;8.80;;;;;;;22.93;70.88;100559.13;109038;276;38426;-72
2023/09/18 06:11:33;;;;;;;10.20;8.80;;;;;;;22.75;70.68;100560.67;109035;276;38522;-74
2023/09/18 06:14:17;;;;;;;9.90;9.00;;;;;;;22.56;70.42;100566.41;109015;276;38289;-73
2023/09/18 06:16:52;;;;;;;12.90;9.60;;;;;;;22.43;70.67;100563.77;108988;276;174780;-74
2023/09/18 06:19:27;;;;;;;11.70;9.40;;;;;;;22.33;70.96;100562.48;108976;276;39911;-73
2023/09/18 06:22:07;;;;;;;10.10;9.10;;;;;;;22.28;71.17;100562.04;108990;276;39113;-75
2023/09/18 06:24:42;;;;;;;9.90;8.80;;;;;;;22.22;71.29;100561.61;108980;276;38269;-74
2023/09/18 06:27:18;;;;;;;9.30;8.30;;;;;;;22.18;71.40;100560.17;108901;276;38324;-75
2023/09/18 06:29:54;;;;;;;10.00;8.90;;;;;;;22.17;71.55;100559.17;108934;276;39274;-74
2023/09/18 06:32:29;;;;;;;9.90;8.90;;;;;;;22.20;71.59;100560.77;108966;276;39129;-74
2023/09/18 06:35:03;;;;;;;10.90;9.70;;;;;;;22.22;71.59;100563.63;108971;276;38756;-69
2023/09/18 06:37:40;;;;;;;11.80;8.90;;;;;;;22.23;71.35;100564.58;108971;276;38687;-70
2023/09/18 06:40:24;;;;;;;11.50;9.60;;;;;;;22.23;71.67;100558.87;109013;276;38174;-71
2023/09/18 06:43:08;;;;;;;9.80;8.90;;;;;;;22.26;71.75;100561.98;109021;276;38305;-70
2023/09/18 06:45:46;;;;;;;9.40;8.40;;;;;;;22.30;71.71;100560.73;108881;276;172039;-71
2023/09/18 06:48:23;;;;;;;11.20;8.70;;;;;;;22.37;71.67;100556.77;108959;276;38156;-68
2023/09/18 06:50:59;;;;;;;11.60;9.20;;;;;;;22.46;71.52;100555.01;108866;276;174739;-71
2023/09/18 06:53:33;;;;;;;10.40;9.30;;;;;;;22.52;71.57;100553.17;108980;276;39762;-71
2023/09/18 06:56:09;;;;;;;10.60;9.20;;;;;;;22.60;71.15;100554.25;108897;276;38239;-72
2023/09/18 06:58:51;;;;;;;10.30;9.30;;;;;;;22.66;70.82;100548.29;108348;276;740548;-73
2023/09/18 07:01:25;;;;;;;11.00;9.00;;;;;;;22.72;70.79;100548.10;108945;276;38333;-73
2023/09/18 07:03:59;;;;;;;11.50;8.30;;;;;;;22.80;70.78;100548.00;108957;276;38272;-71
2023/09/18 07:06:34;;;;;;;10.80;9.40;;;;;;;22.89;70.81;100553.28;108977;276;38152;-70
2023/09/18 07:09:12;;;;;;;11.10;8.50;;;;;;;22.99;70.38;100550.60;108949;276;39165;-71
2023/09/18 07:11:49;;;;;;;9.80;8.50;;;;;;;23.11;70.53;100550.05;108975;276;38741;-71
2023/09/18 07:14:27;;;;;;;9.00;8.20;;;;;;;23.25;70.06;100551.73;108902;276;174714;-71
2023/09/18 07:17:03;;;;;;;9.00;8.10;;;;;;;23.35;69.40;100551.91;109024;276;38765;-69
2023/09/18 07:19:46;;;;;;;9.70;8.70;;;;;;;23.44;68.92;100558.21;109001;276;38283;-69
2023/09/18 07:22:20;;;;;;;11.50;8.60;;;;;;;23.49;68.39;100551.33;108932;276;39245;-71
2023/09/18 07:24:54;;;;;;;8.80;8.00;;;;;;;23.53;68.34;100556.87;108952;276;38737;-70
2023/09/18 07:27:30;;;;;;;9.90;8.70;;;;;;;23.58;68.40;100556.90;108942;276;39902;-69
2023/09/18 07:30:05;;;;;;;9.40;8.40;;;;;;;23.66;68.42;100554.69;108956;276;38162;-69
2023/09/18 07:32:42;;;;;;;9.00;8.20;;;;;;;23.75;68.36;100557.08;108895;276;173181;-71
2023/09/18 07:35:21;;;;;;;9.70;8.80;;;;;;;23.81;67.82;100555.06;108967;276;39676;-71
2023/09/18 07:37:55;;;;;;;15.40;13.80;;;;;;;23.86;67.56;100551.27;108982;276;39448;-69
2023/09/18 07:40:31;;;;;;;10.20;8.70;;;;;;;23.93;67.51;100553.31;108934;276;39323;-69
2023/09/18 07:43:06;;;;;;;11.40;8.70;;;;;;;24.00;67.13;100550.66;109020;276;38592;-70
2023/09/18 07:45:47;;;;;;;10.70;8.70;;;;;;;24.09;67.03;100548.72;108953;276;39126;-71
2023/09/18 07:48:26;;;;;;;10.80;8.40;;;;;;;24.30;66.85;100547.93;108955;276;38239;-69
2023/09/18 07:51:01;;;;;;;8.90;8.10;;;;;;;24.61;65.98;100548.54;108962;276;38272;-69
2023/09/18 07:53:37;;;;;;;8.50;7.60;;;;;;;25.05;66.62;100543.92;108936;276;38453;-69
2023/09/18 07:56:12;;;;;;;9.10;7.50;;;;;;;25.69;66.12;100543.23;108970;276;38298;-71
2023/09/18 07:58:49;;;;;;;7.90;7.10;;;;;;;26.40;64.20;100540.39;108966;276;38293;-71
2023/09/18 08:01:24;;;;;;;7.10;6.50;;;;;;;27.21;61.62;100543.10;108988;276;38276;-72
2023/09/18 08:04:01;;;;;;;8.10;6.40;;;;;;;28.05;59.65;100541.47;108981;276;39326;-72
2023/09/18 08:06:39;;;;;;;13.60;6.70;;;;;;;28.91;56.51;100536.67;108970;276;38719;-72
2023/09/18 08:09:21;;;;;;;6.70;6.10;;;;;;;29.81;54.85;100532.16;109035;276;39002;-72
2023/09/18 08:11:56;;;;;;;7.80;6.10;;;;;;;30.69;52.27;100528.04;108923;276;38416;-72
2023/09/18 08:14:35;;;;;;;6.10;5.50;;;;;;;31.46;49.72;100524.44;108966;276;38301;-71
2023/09/18 08:17:12;;;;;;;6.10;5.50;;;;;;;32.10;47.39;100521.21;108952;276;38597;-69
2023/09/18 08:19:53;;;;;;;8.70;5.30;;;;;;;32.70;45.97;100522.77;108990;276;38167;-68
2023/09/18 08:22:27;;;;;;;6.80;5.30;;;;;;;33.15;44.84;100516.98;108904;276;39078;-71
2023/09/18 08:25:07;;;;;;;7.60;5.70;;;;;;;33.39;43.49;100517.42;108919;276;38208;-72
2023/09/18 08:27:47;;;;;;;7.00;5.40;;;;;;;33.42;42.66;100524.03;108958;276;38181;-71
2023/09/18 08:30:22;;;;;;;7.70;5.40;;;;;;;33.22;42.15;100523.61;108942;276;39390;-73
2023/09/18 08:33:00;;;;;;;6.30;5.70;;;;;;;32.91;42.66;100524.34;108879;276;174261;-71
2023/09/18 08:35:35;;;;;;;9.00;6.20;;;;;;;32.63;42.75;100524.73;108924;276;39666;-71
2023/09/18 08:38:12;;;;;;;6.60;5.90;;;;;;;32.59;42.92;100519.66;108965;276;38414;-73
2023/09/18 08:40:54;;;;;;;6.70;6.00;;;;;;;32.64;42.83;100518.89;108947;276;39331;-73
2023/09/18 08:43:31;;;;;;;8.90;7.80;;;;;;;32.77;42.67;100516.45;108966;276;38415;-72
2023/09/18 08:46:09;;;;;;;7.70;6.90;;;;;;;32.82;42.37;100505.83;108978;276;38465;-73
2023/09/18 08:48:43;;;;;;;8.50;6.30;;;;;;;32.92;42.43;100507.33;108945;276;39385;-73
2023/09/18 08:51:22;;;;;;;7.00;6.30;;;;;;;33.07;42.03;100503.89;108963;276;38307;-71
2023/09/18 08:53:58;;;;;;;6.40;5.80;;;;;;;33.21;41.42;100500.58;108946;276;39091;-71
2023/09/18 08:56:34;;;;;;;6.70;5.90;;;;;;;33.17;40.57;100495.59;108906;276;38771;-72
2023/09/18 08:59:12;;;;;;;6.20;5.50;;;;;;;33.04;40.79;100495.50;108950;276;38228;-73
2023/09/18 09:01:49;;;;;;;6.50;5.90;;;;;;;32.89;40.43;100491.71;108954;276;38566;-73
2023/09/18 09:04:25;;;;;;;6.60;6.00;;;;;;;32.67;40.68;100491.11;108933;276;38808;-75
2023/09/18 09:07:00;;;;;;;6.20;5.60;;;;;;;32.47;40.78;100490.33;108959;276;38559;-73
2023/09/18 09:09:34;;;;;;;6.60;6.10;;;;;;;32.22;40.64;100487.56;108941;276;39742;-73
2023/09/18 09:12:11;;;;;;;7.40;5.70;;;;;;;31.93;40.84;100491.32;108985;276;39397;-71
2023/09/18 09:15:08;;;;;;;6.20;5.50;;;;;;;31.68;41.32;100492.56;108973;276;38300;-72
2023/09/18 09:17:45;;;;;;;6.10;5.40;;;;;;;31.59;41.42;100491.23;108971;276;39355;-72
2023/09/18 09:20:22;;;;;;;6.40;5.80;;;;;;;31.66;41.73;100489.84;108963;276;38182;-72
2023/09/18 09:23:02;;;;;;;5.50;5.00;;;;;;;31.88;41.83;100487.54;109018;276;39572;-73
2023/09/18 09:25:36;;;;;;;4.90;4.50;;;;;;;32.23;40.90;100490.45;108977;276;38431;-73
2023/09/18 09:28:13;;;;;;;5.40;4.90;;;;;;;32.62;40.43;100484.61;108903;276;174128;-72
2023/09/18 09:30:50;;;;;;;4.70;4.40;;;;;;;33.02;39.47;100477.43;108896;276;38291;-71
2023/09/18 09:33:24;;;;;;;;;;;;;;;33.40;38.42;100473.27;108949;276;39657;-71
2023/09/18 09:35:57;;;;;;;5.40;4.80;;;;;;;33.68;38.69;100476.05;108844;276;174074;-72
2023/09/18 09:38:36;;;;;;;6.30;4.80;;;;;;;34.03;37.85;100473.85;108927;276;38240;-72
2023/09/18 09:41:13;;;;;;;4.90;4.40;;;;;;;34.19;36.87;100470.76;108889;276;38745;-73
2023/09/18 09:43:48;;;;;;;5.60;4.70;;;;;;;34.12;37.07;100466.20;108951;276;38255;-72
2023/09/18 09:46:27;;;;;;;5.10;4.60;;;;;;;33.95;36.55;100467.15;108986;276;38433;-74
2023/09/18 09:49:06;;;;;;;4.70;4.30;;;;;;;33.56;36.94;100462.22;108927;276;38422;-73
2023/09/18 09:51:41;;;;;;;4.90;4.00;;;;;;;33.15;36.88;100458.88;108954;276;38184;-73
2023/09/18 09:54:17;;;;;;;4.70;4.20;;;;;;;32.74;37.03;100456.96;108997;276;38232;-74
2023/09/18 09:56:56;;;;;;;3.80;3.50;;;;;;;32.29;36.98;100454.17;108993;276;39206;-72
2023/09/18 09:59:35;;;;;;;4.10;3.80;;;;;;;31.84;37.59;100453.73;108918;276;39529;-73
2023/09/18 10:02:14;;;;;;;4.70;4.00;;;;;;;31.49;37.97;100452.16;108951;276;38230;-71
2023/09/18 10:04:48;;;;;;;4.30;4.00;;;;;;;31.11;38.73;100448.27;108800;276;174372;-71
2023/09/18 10:07:25;;;;;;;4.60;4.10;;;;;;;30.86;38.75;100445.01;108891;276;39962;-71
2023/09/18 10:10:01;;;;;;;4.60;4.20;;;;;;;30.56;38.92;100438.73;108944;276;39195;-71
2023/09/18 10:12:36;;;;;;;4.40;4.00;;;;;;;30.31;39.88;100436.95;108967;276;38256;-72
2023/09/18 10:15:12;;;;;;;5.90;4.50;;;;;;;30.14;40.58;100435.95;108966;276;38721;-72
2023/09/18 10:17:48;;;;;;;4.80;4.40;;;;;;;30.03;40.80;100434.75;108992;276;39829;-75
2023/09/18 10:20:26;;;;;;;5.10;4.60;;;;;;;29.87;40.99;100427.52;109066;276;38161;-75
2023/09/18 10:23:05;;;;;;;5.10;4.60;;;;;;;29.76;41.31;100421.69;109006;276;39619;-75
2023/09/18 10:25:40;;;;;;;5.80;4.80;;;;;;;29.68;41.77;100416.80;108911;276;38237;-75
2023/09/18 10:28:18;;;;;;;4.90;4.30;;;;;;;29.61;42.39;100415.46;108939;276;38151;-75
2023/09/18 10:30:55;;;;;;;5.30;4.50;;;;;;;29.53;42.38;100415.84;108877;276;39039;-74
2023/09/18 10:33:30;;;;;;;5.20;4.70;;;;;;;29.50;42.59;100405.86;108960;276;39891;-74
2023/09/18 10:36:10;;;;;;;6.10;4.30;;;;;;;29.47;42.82;100410.16;108929;276;39117;-75
2023/09/18 10:38:49;;;;;;;4.90;4.50;;;;;;;29.43;42.56;100405.61;108983;276;38176;-74
2023/09/18 10:41:25;;;;;;;5.00;4.60;;;;;;;29.36;43.02;100405.08;108971;276;39599;-75
2023/09/18 10:44:04;;;;;;;5.30;4.80;;;;;;;29.32;42.71;100406.08;108997;276;38443;-75
2023/09/18 10:46:38;;;;;;;6.30;4.30;;;;;;;29.26;42.71;100402.69;108924;276;38495;-75
2023/09/18 10:49:16;;;;;;;4.20;3.90;;;;;;;29.20;42.61;100399.25;108982;276;38692;-75
2023/09/18 10:51:50;;;;;;;5.40;3.90;;;;;;;29.13;42.69;100398.96;109014;276;39698;-74
2023/09/18 10:54:26;;;;;;;4.70;4.20;;;;;;;29.10;42.77;100395.95;108936;276;38678;-74
2023/09/18 10:57:01;;;;;;;4.50;4.10;;;;;;;29.05;42.74;100394.91;109032;276;39318;-77
2023/09/18 10:59:36;;;;;;;4.80;4.20;;;;;;;28.98;42.72;100392.13;109043;276;39321;-75
2023/09/18 11:02:10;;;;;;;4.40;4.00;;;;;;;28.92;42.91;100390.80;108979;276;38495;-75
2023/09/18 11:04:45;;;;;;;4.50;4.10;;;;;;;28.86;42.42;100392.25;109043;276;38954;-73
2023/09/18 11:07:29;;;;;;;4.10;3.80;;;;;;;28.76;42.68;100385.94;109007;276;38768;-75
2023/09/18 11:10:22;;;;;;;4.80;4.20;;;;;;;28.73;43.17;100376.51;108982;276;39312;-75
2023/09/18 11:12:57;;;;;;;4.80;4.00;;;;;;;28.72;43.40;100365.80;108954;276;38340;-75
2023/09/18 11:15:37;;;;;;;4.30;4.00;;;;;;;28.70;43.60;100367.27;108981;276;39308;-74
2023/09/18 11:18:11;;;;;;;5.80;4.80;;;;;;;28.70;43.21;100365.12;109041;276;38498;-77
2023/09/18 11:21:05;;;;;;;5.80;4.30;;;;;;;28.61;43.15;100368.95;108960;276;38329;-75
2023/09/18 11:23:44;;;;;;;4.60;4.00;;;;;;;28.53;42.91;100370.08;108989;276;38855;-75
2023/09/18 11:26:19;;;;;;;4.60;4.10;;;;;;;28.41;42.44;100364.39;108970;276;38137;-75
2023/09/18 11:28:59;;;;;;;4.70;4.20;;;;;;;28.28;42.59;100360.59;108941;276;38812;-77
2023/09/18 11:31:49;;;;;;;5.30;4.80;;;;;;;28.22;42.84;100350.66;109000;276;38404;-78
2023/09/18 11:34:28;;;;;;;7.60;4.60;;;;;;;28.18;43.12;100357.70;109007;276;38745;-76
2023/09/18 11:37:31;;;;;;;5.10;4.50;;;;;;;28.18;43.40;100354.69;109063;276;41514;-78
2023/09/18 11:40:33;;;;;;;5.10;4.70;;;;;;;28.21;43.28;100354.37;108302;276;888356;-77
2023/09/18 11:43:30;;;;;;;5.30;4.80;;;;;;;28.09;43.25;100357.71;109039;276;39640;-74
2023/09/18 11:46:05;;;;;;;5.70;4.80;;;;;;;27.92;43.62;100359.20;109022;276;39371;-76
2023/09/18 11:48:40;;;;;;;5.00;4.60;;;;;;;27.83;43.77;100357.11;108991;276;39328;-75
2023/09/18 11:51:34;;;;;;;5.90;5.20;;;;;;;27.81;43.64;100348.67;109085;276;39801;-76
2023/09/18 11:54:25;;;;;;;6.00;5.40;;;;;;;27.79;43.33;100349.26;109085;276;38256;-77
2023/09/18 11:57:08;;;;;;;6.00;5.50;;;;;;;27.83;42.97;100355.95;108982;276;38575;-75
2023/09/18 11:59:47;;;;;;;6.50;6.00;;;;;;;27.80;42.73;100355.97;108972;276;39681;-75
2023/09/18 12:02:46;;;;;;;6.40;5.60;;;;;;;27.69;42.93;100355.89;108978;276;38170;-76
2023/09/18 12:05:45;;;;;;;8.30;5.70;;;;;;;27.58;43.30;100344.73;109014;276;38236;-76
2023/09/18 12:08:27;;;;;;;6.50;5.70;;;;;;;27.58;43.49;100346.11;108957;276;38536;-77
2023/09/18 12:11:16;;;;;;;6.20;5.60;;;;;;;27.60;43.43;100340.44;109036;276;39323;-75
2023/09/18 12:13:58;;;;;;;5.80;5.30;;;;;;;27.59;43.20;100339.55;108986;276;38442;-75
2023/09/18 12:16:44;;;;;;;6.20;5.70;;;;;;;27.49;43.33;100340.50;108961;276;38591;-75
2023/09/18 12:19:23;;;;;;;6.00;5.50;;;;;;;27.40;43.57;100338.09;108918;276;38135;-75
2023/09/18 12:22:05;;;;;;;6.80;6.10;;;;;;;27.30;43.73;100339.42;108985;276;39209;-75